Time;durP1;ratioP1;P1;durP2;ratioP2;P2;SDS_P1;SDS_P2;PMS_P1;PMS_P2;Temp;Humidity;BMP_temperature;BMP_pressure;BME280_temperature;BME280_humidity;BME280_pressure;Samples;Min_cycle;Max_cycle;Signal;HPM_P1;HPM_P2
2022/07/16 00:01:22;;;;;;;1.20;0.20;;;15.30;99.90;;;;;;4906011;29;20244;-81
2022/07/16 00:01:44;;;;;;;0.70;0.20;;;15.30;99.90;;;;;;4898530;29;20177;-82
2022/07/16 00:04:09;;;;;;;0.70;0.20;;;15.30;99.90;;;;;;4902732;29;20496;-81
2022/07/16 00:06:35;;;;;;;0.50;0.33;;;15.30;99.90;;;;;;4908758;29;20188;-81
2022/07/16 00:09:00;;;;;;;0.50;0.20;;;15.30;99.90;;;;;;4915083;29;20231;-82
2022/07/16 00:11:26;;;;;;;0.70;0.30;;;15.30;99.90;;;;;;4915056;29;20649;-82
2022/07/16 00:13:51;;;;;;;0.70;0.47;;;15.30;99.90;;;;;;4915481;29;20182;-81
2022/07/16 00:16:17;;;;;;;0.77;0.30;;;15.30;99.90;;;;;;4917055;29;20214;-81
2022/07/16 00:21:27;;;;;;;0.50;0.30;;;15.30;99.90;;;;;;4917086;29;20544;-81
2022/07/16 00:23:52;;;;;;;1.13;0.20;;;15.30;99.90;;;;;;4915885;29;20423;-81
2022/07/16 00:26:18;;;;;;;2.50;0.60;;;15.30;99.90;;;;;;4916961;29;20423;-81
2022/07/16 00:28:45;;;;;;;0.40;0.10;;;15.40;99.90;;;;;;4911237;29;20237;-81
2022/07/16 00:31:11;;;;;;;0.40;0.20;;;15.40;99.90;;;;;;4904204;29;20478;-82
2022/07/16 00:33:37;;;;;;;0.50;0.50;;;15.40;99.90;;;;;;4911286;29;20808;-82
2022/07/16 00:36:02;;;;;;;0.50;0.30;;;15.40;99.90;;;;;;4908366;29;20509;-81
2022/07/16 00:38:31;;;;;;;0.47;0.20;;;15.40;99.90;;;;;;4906047;29;20176;-81
2022/07/16 00:40:57;;;;;;;0.40;0.40;;;15.40;99.90;;;;;;4906056;29;20218;-81
2022/07/16 00:43:23;;;;;;;2.20;0.40;;;15.40;99.90;;;;;;4907590;29;20935;-81
2022/07/16 00:45:48;;;;;;;0.80;0.30;;;15.40;99.90;;;;;;4906273;29;20530;-81
2022/07/16 00:48:17;;;;;;;0.57;0.20;;;15.30;99.90;;;;;;4905945;29;20299;-84
2022/07/16 00:50:43;;;;;;;0.63;0.30;;;15.10;99.90;;;;;;4907568;29;20183;-81
2022/07/16 00:53:10;;;;;;;0.93;0.20;;;15.10;99.90;;;;;;4906131;29;20407;-82
2022/07/16 00:55:36;;;;;;;0.87;0.40;;;15.00;99.90;;;;;;4906036;29;20485;-82
2022/07/16 00:58:02;;;;;;;1.20;0.30;;;15.00;99.90;;;;;;4907418;29;20559;-82
2022/07/16 01:00:28;;;;;;;0.80;0.20;;;14.90;99.90;;;;;;4905804;29;20984;-81
2022/07/16 01:02:54;;;;;;;0.60;0.30;;;14.90;99.90;;;;;;4916191;29;20451;-81
2022/07/16 01:05:20;;;;;;;0.60;0.50;;;14.90;99.90;;;;;;4916389;29;20463;-81
2022/07/16 01:07:45;;;;;;;1.20;0.23;;;14.90;99.90;;;;;;4916486;29;20186;-81
2022/07/16 01:10:13;;;;;;;0.60;0.40;;;14.90;99.90;;;;;;4914869;29;20267;-81
2022/07/16 01:12:38;;;;;;;0.67;0.33;;;14.80;99.90;;;;;;4915310;29;20543;-81
2022/07/16 01:15:04;;;;;;;1.77;0.83;;;14.90;99.90;;;;;;4916411;29;20429;-82
2022/07/16 01:17:30;;;;;;;1.17;0.47;;;14.90;99.90;;;;;;4919232;29;20210;-81
2022/07/16 01:19:56;;;;;;;0.87;0.67;;;14.80;99.90;;;;;;4919678;29;20446;-82
2022/07/16 01:22:23;;;;;;;0.90;0.50;;;14.90;99.90;;;;;;4919928;29;20187;-81
2022/07/16 01:24:49;;;;;;;2.50;0.40;;;14.80;99.90;;;;;;4919865;29;20269;-82
2022/07/16 01:27:18;;;;;;;0.93;0.60;;;14.80;99.90;;;;;;4919747;29;20418;-81
2022/07/16 01:29:43;;;;;;;0.80;0.30;;;14.70;99.90;;;;;;4919662;29;20483;-82
2022/07/16 01:32:09;;;;;;;1.00;0.30;;;14.70;99.90;;;;;;4919760;29;20857;-82
2022/07/16 01:34:35;;;;;;;0.70;0.60;;;14.70;99.90;;;;;;4919361;29;20245;-82
2022/07/16 01:37:06;;;;;;;1.53;0.50;;;14.70;99.90;;;;;;4919467;29;20309;-82
2022/07/16 01:39:35;;;;;;;0.93;0.50;;;14.70;99.90;;;;;;4919715;29;20183;-83
2022/07/16 01:42:02;;;;;;;2.73;0.73;;;14.70;99.90;;;;;;4919593;29;20485;-82
2022/07/16 01:44:30;;;;;;;1.00;0.40;;;14.60;99.90;;;;;;4919376;29;20462;-83
2022/07/16 01:46:57;;;;;;;4.00;0.60;;;14.60;99.90;;;;;;4919415;29;20876;-82
2022/07/16 01:49:23;;;;;;;1.50;0.47;;;14.60;99.90;;;;;;4919016;29;21033;-82
2022/07/16 01:51:49;;;;;;;1.13;0.40;;;14.50;99.90;;;;;;4919361;29;20454;-82
2022/07/16 01:54:15;;;;;;;1.47;0.53;;;14.50;99.90;;;;;;4919347;29;20473;-83
2022/07/16 01:56:40;;;;;;;1.13;0.40;;;14.50;99.90;;;;;;4919242;29;20261;-82
2022/07/16 01:59:09;;;;;;;1.00;0.43;;;14.50;99.90;;;;;;4917994;29;20175;-82
2022/07/16 02:01:34;;;;;;;2.67;1.03;;;14.50;99.90;;;;;;4919066;29;20174;-83
2022/07/16 02:03:59;;;;;;;0.83;0.20;;;14.50;99.90;;;;;;4917569;29;20863;-82
2022/07/16 02:06:25;;;;;;;1.30;0.80;;;14.50;99.90;;;;;;4917882;29;20186;-82
2022/07/16 02:08:51;;;;;;;1.13;0.43;;;14.50;99.90;;;;;;4919014;29;20222;-83
2022/07/16 02:11:17;;;;;;;0.50;0.20;;;14.60;99.90;;;;;;4918833;29;20222;-82
2022/07/16 02:13:42;;;;;;;1.90;0.40;;;14.50;99.90;;;;;;4918948;29;20650;-83
2022/07/16 02:16:10;;;;;;;1.23;0.50;;;14.50;99.90;;;;;;4918922;29;20202;-82
2022/07/16 02:18:36;;;;;;;1.37;0.53;;;14.50;99.90;;;;;;4917318;29;20425;-83
2022/07/16 02:21:02;;;;;;;1.20;0.80;;;14.60;99.90;;;;;;4917691;29;20794;-82
2022/07/16 02:23:27;;;;;;;1.53;0.90;;;14.60;99.90;;;;;;4918793;29;20583;-82
2022/07/16 02:25:53;;;;;;;1.73;1.07;;;14.60;99.90;;;;;;4918841;29;20430;-82
2022/07/16 02:28:18;;;;;;;2.10;1.20;;;14.60;99.90;;;;;;4916906;29;20178;-82
2022/07/16 02:30:46;;;;;;;1.00;0.53;;;14.50;99.90;;;;;;4918549;29;20191;-84
2022/07/16 02:33:17;;;;;;;2.00;0.67;;;14.60;99.90;;;;;;4918254;29;20171;-82
2022/07/16 02:35:43;;;;;;;1.60;0.67;;;14.60;99.90;;;;;;4918661;29;20907;-82
2022/07/16 02:38:10;;;;;;;1.10;0.67;;;14.60;99.90;;;;;;4918543;29;20419;-82
2022/07/16 02:40:36;;;;;;;3.53;0.63;;;14.60;99.90;;;;;;4918488;29;20441;-83
2022/07/16 02:43:04;;;;;;;1.27;0.60;;;14.70;99.90;;;;;;4918447;29;20810;-82
2022/07/16 02:45:29;;;;;;;1.57;0.60;;;14.60;99.90;;;;;;4918471;29;20419;-82
2022/07/16 02:47:55;;;;;;;1.77;0.77;;;14.70;99.90;;;;;;4918360;29;20449;-83
2022/07/16 02:50:23;;;;;;;2.57;1.13;;;14.70;99.90;;;;;;4918330;29;20214;-82
2022/07/16 02:52:49;;;;;;;2.60;0.80;;;14.70;99.90;;;;;;4918278;29;20533;-83
2022/07/16 02:55:15;;;;;;;2.80;0.50;;;14.70;99.90;;;;;;4916978;29;20430;-83
2022/07/16 02:57:40;;;;;;;1.23;0.40;;;14.80;99.90;;;;;;4918118;29;20166;-82
2022/07/16 03:00:08;;;;;;;1.87;0.80;;;14.80;99.90;;;;;;4918332;29;20266;-83
2022/07/16 03:02:34;;;;;;;1.10;0.57;;;14.70;99.90;;;;;;4917740;29;20718;-82
2022/07/16 03:05:00;;;;;;;1.60;0.30;;;14.70;99.90;;;;;;4918141;29;20506;-82
2022/07/16 03:07:26;;;;;;;3.23;0.70;;;14.70;99.90;;;;;;4918043;29;20198;-82
2022/07/16 03:09:51;;;;;;;2.17;0.50;;;14.70;99.90;;;;;;4916474;29;20505;-82
2022/07/16 03:12:19;;;;;;;1.30;0.60;;;14.60;99.90;;;;;;4917993;29;20179;-82
2022/07/16 03:14:45;;;;;;;0.97;0.40;;;14.70;99.90;;;;;;4917883;29;20182;-82
2022/07/16 03:17:12;;;;;;;1.37;0.50;;;14.60;99.90;;;;;;4918002;29;20549;-82
2022/07/16 03:19:37;;;;;;;0.60;0.57;;;14.60;99.90;;;;;;4917457;29;20174;-82
2022/07/16 03:22:03;;;;;;;2.37;0.40;;;14.60;99.90;;;;;;4917680;29;20955;-82
2022/07/16 03:24:29;;;;;;;1.10;0.40;;;14.70;99.90;;;;;;4917672;29;20178;-82
2022/07/16 03:26:55;;;;;;;2.63;0.50;;;14.70;99.90;;;;;;4917646;29;20253;-82
2022/07/16 03:29:20;;;;;;;1.20;0.60;;;14.70;99.90;;;;;;4917698;29;20275;-83
2022/07/16 03:31:46;;;;;;;1.73;0.50;;;14.80;99.90;;;;;;4917542;29;20427;-82
2022/07/16 03:34:11;;;;;;;0.70;0.30;;;14.80;99.90;;;;;;4917181;29;20187;-82
2022/07/16 03:36:37;;;;;;;0.80;0.30;;;14.70;99.90;;;;;;4917611;29;20171;-83
2022/07/16 03:39:05;;;;;;;0.87;0.20;;;14.80;99.90;;;;;;4916669;29;20189;-82
2022/07/16 03:41:33;;;;;;;0.90;0.30;;;14.70;99.90;;;;;;4917468;29;20178;-82
2022/07/16 03:43:59;;;;;;;0.70;0.40;;;14.80;99.90;;;;;;4917310;29;20474;-82
2022/07/16 03:46:25;;;;;;;2.50;0.63;;;14.70;99.90;;;;;;4917396;29;20774;-82
2022/07/16 03:48:50;;;;;;;0.63;0.20;;;14.70;99.90;;;;;;4916863;29;20474;-82
2022/07/16 03:51:16;;;;;;;0.60;0.40;;;14.70;99.90;;;;;;4916046;29;20182;-82
2022/07/16 03:53:42;;;;;;;0.40;0.20;;;14.70;99.90;;;;;;4917156;29;20682;-83
2022/07/16 03:56:08;;;;;;;0.60;0.20;;;14.70;99.90;;;;;;4917160;29;20427;-82
2022/07/16 03:58:34;;;;;;;0.50;0.20;;;14.60;99.90;;;;;;4916505;29;20189;-82
2022/07/16 04:00:59;;;;;;;0.70;0.30;;;14.60;99.90;;;;;;4917111;29;20419;-82
2022/07/16 04:03:25;;;;;;;1.30;0.57;;;14.70;99.90;;;;;;4916677;29;20180;-82
2022/07/16 04:05:52;;;;;;;0.90;0.20;;;14.70;99.90;;;;;;4915696;29;20177;-82
2022/07/16 04:08:17;;;;;;;0.50;0.20;;;14.70;99.90;;;;;;4916914;29;20179;-82
2022/07/16 04:10:43;;;;;;;0.87;0.20;;;14.70;99.90;;;;;;4916681;29;20521;-82
2022/07/16 04:13:08;;;;;;;1.53;0.30;;;14.60;99.90;;;;;;4915707;29;20539;-82
2022/07/16 04:15:37;;;;;;;0.50;0.20;;;14.50;99.90;;;;;;4916985;29;20182;-82
2022/07/16 04:18:02;;;;;;;0.50;0.20;;;14.50;99.90;;;;;;4916430;29;20218;-82
2022/07/16 04:20:28;;;;;;;0.83;0.20;;;14.50;99.90;;;;;;4916757;29;20455;-82
2022/07/16 04:22:54;;;;;;;1.03;0.20;;;14.50;99.90;;;;;;4916804;29;20179;-82
2022/07/16 04:25:20;;;;;;;0.70;0.20;;;14.70;99.90;;;;;;4916788;29;20250;-82
2022/07/16 04:27:49;;;;;;;0.70;0.30;;;14.60;99.90;;;;;;4916772;29;20418;-82
2022/07/16 04:30:15;;;;;;;0.47;0.20;;;14.70;99.90;;;;;;4915434;29;20478;-82
2022/07/16 04:32:41;;;;;;;0.57;0.20;;;14.70;99.90;;;;;;4916312;29;20416;-82
2022/07/16 04:35:10;;;;;;;0.97;0.47;;;14.70;99.90;;;;;;4916777;29;20423;-82
2022/07/16 04:37:36;;;;;;;0.80;0.30;;;14.80;99.90;;;;;;4916724;29;20433;-82
2022/07/16 04:40:09;;;;;;;1.60;0.53;;;14.70;99.90;;;;;;4916716;29;20978;-82
2022/07/16 04:42:39;;;;;;;0.93;0.30;;;14.70;99.90;;;;;;4916661;29;20587;-82
2022/07/16 04:45:06;;;;;;;0.97;0.20;;;14.80;99.90;;;;;;4916464;29;20461;-82
2022/07/16 04:47:32;;;;;;;0.60;0.40;;;14.80;99.90;;;;;;4916175;29;20467;-82
2022/07/16 04:49:57;;;;;;;0.50;0.30;;;14.80;99.90;;;;;;4917247;29;20485;-82
2022/07/16 04:52:23;;;;;;;0.60;0.30;;;14.90;99.90;;;;;;4919057;29;20505;-82
2022/07/16 04:54:48;;;;;;;1.43;0.97;;;15.00;99.90;;;;;;4913789;29;20177;-82
2022/07/16 04:57:17;;;;;;;3.10;0.73;;;14.90;99.90;;;;;;4920354;29;20668;-82
2022/07/16 04:59:42;;;;;;;0.50;0.30;;;14.90;99.90;;;;;;4920290;29;20176;-82
2022/07/16 05:04:52;;;;;;;1.30;0.30;;;14.90;99.90;;;;;;4920473;29;20189;-81
2022/07/16 05:07:17;;;;;;;1.57;0.50;;;15.10;99.90;;;;;;4920020;29;20506;-82
2022/07/16 05:09:43;;;;;;;1.00;0.30;;;15.20;99.90;;;;;;4919771;29;20218;-82
2022/07/16 05:12:11;;;;;;;1.43;0.67;;;15.20;99.90;;;;;;4920127;29;20281;-82
2022/07/16 05:14:37;;;;;;;3.73;0.30;;;15.20;99.90;;;;;;4918893;29;20655;-81
2022/07/16 05:17:02;;;;;;;0.87;0.40;;;15.20;99.90;;;;;;4918382;29;20514;-82
2022/07/16 05:19:28;;;;;;;0.80;0.30;;;15.20;99.90;;;;;;4919928;29;20179;-82
2022/07/16 05:21:53;;;;;;;0.47;0.20;;;15.10;99.90;;;;;;4918620;29;20174;-82
2022/07/16 05:24:19;;;;;;;3.77;0.30;;;15.10;99.90;;;;;;4919909;29;20186;-82
2022/07/16 05:26:44;;;;;;;1.57;0.37;;;15.20;99.90;;;;;;4919818;29;20174;-82
2022/07/16 05:29:10;;;;;;;0.60;0.20;;;15.30;99.90;;;;;;4918433;29;20226;-82
2022/07/16 05:31:35;;;;;;;1.33;0.20;;;15.40;99.90;;;;;;4918545;29;20183;-82
2022/07/16 05:34:01;;;;;;;1.17;0.43;;;15.30;99.90;;;;;;4919311;29;20241;-83
2022/07/16 05:36:26;;;;;;;0.50;0.27;;;15.30;99.90;;;;;;4919660;29;20186;-82
2022/07/16 05:38:52;;;;;;;2.70;0.20;;;15.40;99.90;;;;;;4919679;29;20194;-82
2022/07/16 05:41:17;;;;;;;1.90;0.63;;;15.60;99.90;;;;;;4919590;29;20640;-82
2022/07/16 05:43:43;;;;;;;0.97;0.17;;;15.50;99.90;;;;;;4919681;29;20182;-82
2022/07/16 05:46:08;;;;;;;0.70;0.33;;;15.40;99.90;;;;;;4919537;29;20179;-81
2022/07/16 05:48:34;;;;;;;0.70;0.20;;;15.30;99.90;;;;;;4919016;29;20189;-82
2022/07/16 05:50:59;;;;;;;0.93;0.30;;;15.20;99.90;;;;;;4919497;29;20641;-82
2022/07/16 05:53:25;;;;;;;0.67;0.20;;;15.20;99.90;;;;;;4919108;29;20653;-82
2022/07/16 05:55:50;;;;;;;1.30;0.30;;;15.30;99.90;;;;;;4919274;29;20222;-82
2022/07/16 05:58:16;;;;;;;0.70;0.43;;;15.30;99.90;;;;;;4917993;29;20180;-81
2022/07/16 06:00:41;;;;;;;2.60;0.33;;;15.30;99.90;;;;;;4919264;29;20175;-81
2022/07/16 06:03:07;;;;;;;0.77;0.30;;;15.20;99.90;;;;;;4916816;29;20183;-81
2022/07/16 06:05:33;;;;;;;0.43;0.20;;;15.30;99.90;;;;;;4919177;29;20167;-81
2022/07/16 06:07:58;;;;;;;1.43;0.20;;;15.40;99.90;;;;;;4917813;29;20195;-82
2022/07/16 06:10:24;;;;;;;1.03;0.37;;;15.40;99.90;;;;;;4918731;29;20495;-83
2022/07/16 06:12:50;;;;;;;1.40;0.40;;;15.30;99.90;;;;;;4919083;29;20244;-82
2022/07/16 06:15:15;;;;;;;2.33;0.20;;;15.60;99.90;;;;;;4918954;29;20180;-81
2022/07/16 06:17:41;;;;;;;1.90;0.30;;;15.70;99.90;;;;;;4917375;29;20176;-81
2022/07/16 06:20:07;;;;;;;0.70;0.20;;;16.00;99.90;;;;;;4917709;29;20183;-81
2022/07/16 06:22:36;;;;;;;2.07;0.50;;;16.90;1.00;;;;;;4918832;29;20643;-82
2022/07/16 06:25:02;;;;;;;0.80;0.20;;;16.80;1.00;;;;;;4917579;29;20433;-81
2022/07/16 06:27:28;;;;;;;1.03;0.20;;;16.50;1.00;;;;;;4918853;29;20426;-82
2022/07/16 06:29:54;;;;;;;0.60;0.20;;;16.60;1.00;;;;;;4917509;29;20529;-81
2022/07/16 06:32:19;;;;;;;0.60;0.20;;;16.80;1.00;;;;;;4918415;29;20209;-82
2022/07/16 06:34:44;;;;;;;0.30;0.20;;;16.70;1.00;;;;;;4917399;29;20213;-82
2022/07/16 06:37:10;;;;;;;2.03;0.20;;;16.80;1.00;;;;;;4918618;29;20231;-81
2022/07/16 06:39:36;;;;;;;1.50;0.37;;;16.90;1.00;;;;;;4918491;29;20181;-81
2022/07/16 06:42:01;;;;;;;0.80;0.20;;;17.30;1.00;;;;;;4917365;29;20584;-81
2022/07/16 06:44:27;;;;;;;1.27;0.20;;;16.90;99.90;;;;;;4916687;29;20207;-81
2022/07/16 06:46:53;;;;;;;0.40;0.23;;;17.50;1.00;;;;;;4917821;29;20288;-82
2022/07/16 06:49:19;;;;;;;0.40;0.20;;;17.40;99.90;;;;;;4918457;29;20247;-82
2022/07/16 06:51:44;;;;;;;0.80;0.20;;;17.10;1.00;;;;;;4918538;29;20551;-81
2022/07/16 06:54:10;;;;;;;0.40;0.20;;;17.60;99.90;;;;;;4918445;29;20329;-82
2022/07/16 06:56:36;;;;;;;0.70;0.20;;;19.40;99.90;;;;;;4918446;29;20185;-82
2022/07/16 06:59:02;;;;;;;0.57;0.30;;;21.60;99.90;;;;;;4918458;29;20182;-81
2022/07/16 07:01:27;;;;;;;0.77;0.30;;;21.80;99.90;;;;;;4918365;29;20188;-82
2022/07/16 07:03:53;;;;;;;0.50;0.20;;;19.80;99.90;;;;;;4917985;29;20919;-82
2022/07/16 07:06:18;;;;;;;1.53;0.20;;;18.50;1.00;;;;;;4918237;29;20178;-82
2022/07/16 07:08:44;;;;;;;0.93;0.30;;;18.00;1.00;;;;;;4918140;29;20220;-82
2022/07/16 07:11:10;;;;;;;2.20;0.20;;;19.90;1.00;;;;;;4916762;29;20230;-82
2022/07/16 07:13:37;;;;;;;0.73;0.20;;;19.10;1.00;;;;;;4918130;29;20518;-83
2022/07/16 07:16:03;;;;;;;1.07;0.20;;;18.50;99.90;;;;;;4918062;29;20202;-82
2022/07/16 07:18:29;;;;;;;0.87;0.10;;;18.10;99.90;;;;;;4917626;29;20496;-82
2022/07/16 07:20:54;;;;;;;1.43;0.20;;;19.90;53.20;;;;;;4917945;29;20862;-82
2022/07/16 07:23:20;;;;;;;1.57;0.40;;;19.30;99.90;;;;;;4917909;29;20540;-82
2022/07/16 07:25:45;;;;;;;1.67;0.27;;;20.80;99.90;;;;;;4917925;29;20255;-83
2022/07/16 07:28:11;;;;;;;0.83;0.30;;;21.90;99.90;;;;;;4916677;29;20217;-82
2022/07/16 07:30:36;;;;;;;0.93;0.20;;;20.50;99.90;;;;;;4917725;29;20712;-82
2022/07/16 07:33:02;;;;;;;0.83;0.20;;;19.40;99.90;;;;;;4917447;29;20177;-82
2022/07/16 07:35:27;;;;;;;1.00;0.10;;;18.40;99.90;;;;;;4917724;29;20762;-82
2022/07/16 07:37:53;;;;;;;2.87;0.30;;;17.90;1.00;;;;;;4917698;29;20675;-82
2022/07/16 07:40:18;;;;;;;2.73;0.30;;;17.90;1.00;;;;;;4917718;29;20232;-82
2022/07/16 07:42:44;;;;;;;0.50;0.20;;;17.60;99.90;;;;;;4917652;29;20186;-82
2022/07/16 07:45:10;;;;;;;0.70;0.40;;;19.10;1.00;;;;;;4917586;29;20179;-82
2022/07/16 07:47:37;;;;;;;0.60;0.20;;;18.10;1.00;;;;;;4917241;29;20185;-82
2022/07/16 07:50:04;;;;;;;2.60;0.30;;;18.00;99.90;;;;;;4917349;29;20474;-83
2022/07/16 07:52:30;;;;;;;0.80;0.20;;;17.80;96.30;;;;;;4917497;29;20442;-81
2022/07/16 07:54:55;;;;;;;0.47;0.30;;;18.50;1.00;;;;;;4916216;29;20510;-81
2022/07/16 07:57:20;;;;;;;2.00;0.30;;;18.40;1.00;;;;;;4917381;29;20258;-81
2022/07/16 07:59:47;;;;;;;1.30;0.20;;;20.30;99.90;;;;;;4917370;29;20222;-82
2022/07/16 08:02:12;;;;;;;0.40;0.10;;;19.70;99.90;;;;;;4916983;29;20192;-82
2022/07/16 08:04:38;;;;;;;0.40;0.20;;;21.40;99.90;;;;;;4917289;29;20972;-82
2022/07/16 08:07:03;;;;;;;0.50;0.20;;;22.70;66.30;;;;;;4916029;29;20177;-82
2022/07/16 08:09:29;;;;;;;0.60;0.20;;;23.70;33.90;;;;;;4917056;29;20252;-82
2022/07/16 08:11:54;;;;;;;0.57;0.20;;;22.00;14.40;;;;;;4917066;29;20237;-83
2022/07/16 08:14:20;;;;;;;0.77;0.20;;;22.80;28.70;;;;;;4917188;29;20175;-82
2022/07/16 08:16:45;;;;;;;0.90;0.50;;;23.80;6.60;;;;;;4916684;29;20186;-83
2022/07/16 08:19:11;;;;;;;0.83;0.20;;;21.80;20.60;;;;;;4917275;29;20182;-83
2022/07/16 08:21:36;;;;;;;2.10;0.20;;;22.70;7.00;;;;;;4917201;29;20174;-83
2022/07/16 08:26:47;;;;;;;1.30;0.30;;;24.20;1.00;;;;;;4917233;29;20237;-83
2022/07/16 08:29:12;;;;;;;0.70;0.20;;;22.60;1.00;;;;;;4916935;29;20478;-82
2022/07/16 08:31:38;;;;;;;0.87;0.20;;;23.60;1.00;;;;;;4916619;29;20237;-83
2022/07/16 08:34:03;;;;;;;0.60;0.20;;;24.00;1.00;;;;;;4917032;29;20678;-83
2022/07/16 08:36:29;;;;;;;0.83;0.30;;;24.70;1.00;;;;;;4917007;29;20178;-83
2022/07/16 08:38:55;;;;;;;0.60;0.20;;;24.90;1.00;;;;;;4916879;29;20181;-82
2022/07/16 08:41:20;;;;;;;2.63;0.20;;;25.60;1.00;;;;;;4916828;29;20214;-83
2022/07/16 08:43:46;;;;;;;1.27;0.20;;;26.00;1.00;;;;;;4916759;29;20213;-83
2022/07/16 08:46:13;;;;;;;0.70;0.20;;;25.80;1.00;;;;;;4915698;29;20243;-83
2022/07/16 08:48:38;;;;;;;0.63;0.20;;;23.50;1.00;;;;;;4916373;29;20185;-83
2022/07/16 08:51:09;;;;;;;0.53;0.23;;;22.40;1.00;;;;;;4916740;29;20834;-84
2022/07/16 08:53:36;;;;;;;0.63;0.20;;;22.60;1.00;;;;;;4916750;29;20179;-83
2022/07/16 08:56:03;;;;;;;0.80;0.30;;;21.90;1.00;;;;;;4916638;29;20513;-83
2022/07/16 08:58:31;;;;;;;0.50;0.20;;;23.00;1.00;;;;;;4915436;29;20769;-84
2022/07/16 09:00:57;;;;;;;2.30;0.20;;;24.50;1.00;;;;;;4916697;29;20430;-83
2022/07/16 09:03:23;;;;;;;0.40;0.20;;;24.70;1.00;;;;;;4916301;29;20931;-83
2022/07/16 09:05:49;;;;;;;2.43;0.20;;;25.50;1.00;;;;;;4916679;29;20426;-85
2022/07/16 09:08:17;;;;;;;1.37;0.20;;;25.50;1.00;;;;;;4916616;29;20275;-84
2022/07/16 09:10:42;;;;;;;1.47;0.20;;;25.00;1.00;;;;;;4916338;29;20497;-84
2022/07/16 09:13:12;;;;;;;1.10;0.20;;;25.30;1.00;;;;;;4916527;29;20430;-83
2022/07/16 09:15:43;;;;;;;0.93;0.20;;;24.10;1.00;;;;;;4916578;29;20194;-83
2022/07/16 09:18:14;;;;;;;0.40;0.20;;;22.60;1.00;;;;;;4916221;29;20458;-84
2022/07/16 09:20:55;;;;;;;1.10;0.20;;;21.60;1.00;;;;;;4916562;29;20422;-82
2022/07/16 09:23:34;;;;;;;1.03;0.30;;;21.00;1.00;;;;;;4916541;29;20411;-83
2022/07/16 09:26:05;;;;;;;1.00;0.20;;;20.60;1.00;;;;;;4916523;29;20422;-83
2022/07/16 09:28:44;;;;;;;0.60;0.20;;;21.40;1.00;;;;;;4916333;29;20465;-83
2022/07/16 09:31:11;;;;;;;0.50;0.20;;;23.40;1.00;;;;;;4915200;29;20430;-84
2022/07/16 09:33:37;;;;;;;1.33;0.30;;;25.40;1.00;;;;;;4916094;29;20425;-83
2022/07/16 09:36:11;;;;;;;0.93;0.30;;;24.50;1.00;;;;;;4916419;29;20809;-83
2022/07/16 09:38:55;;;;;;;1.33;0.20;;;25.20;1.00;;;;;;4919502;29;20268;-83
2022/07/16 09:41:22;;;;;;;0.93;0.20;;;25.70;1.00;;;;;;4918658;29;20433;-84
2022/07/16 09:43:49;;;;;;;1.57;0.20;;;25.90;1.00;;;;;;4919817;29;20410;-84
2022/07/16 09:46:16;;;;;;;0.40;0.20;;;25.90;1.00;;;;;;4919372;29;20426;-84
2022/07/16 09:48:44;;;;;;;0.90;0.53;;;25.70;1.00;;;;;;4918330;29;20426;-84
2022/07/16 09:51:28;;;;;;;0.90;0.20;;;25.70;1.00;;;;;;4919569;29;20793;-85
2022/07/16 09:53:55;;;;;;;0.70;0.20;;;24.80;1.00;;;;;;4919508;29;20406;-84
2022/07/16 09:56:26;;;;;;;1.60;0.40;;;25.10;1.00;;;;;;4918234;29;20418;-84
2022/07/16 09:58:55;;;;;;;0.67;0.50;;;23.90;1.00;;;;;;4919502;29;20428;-84
2022/07/16 10:01:21;;;;;;;0.60;0.20;;;23.30;1.00;;;;;;4919034;29;20803;-83
2022/07/16 10:03:48;;;;;;;1.77;0.43;;;23.60;1.00;;;;;;4919434;29;20427;-84
2022/07/16 10:06:15;;;;;;;2.60;0.37;;;22.80;1.00;;;;;;4919303;29;20410;-83
2022/07/16 10:08:41;;;;;;;1.17;0.20;;;22.40;1.00;;;;;;4919235;29;20469;-84
2022/07/16 10:11:07;;;;;;;0.70;0.20;;;21.70;1.00;;;;;;4919076;29;20488;-83
2022/07/16 10:13:34;;;;;;;0.97;0.23;;;22.30;1.00;;;;;;4919232;29;20838;-83
2022/07/16 10:16:00;;;;;;;0.77;0.20;;;23.20;1.00;;;;;;4918013;29;20438;-83
2022/07/16 10:18:40;;;;;;;1.47;0.30;;;22.50;1.00;;;;;;4917505;29;20481;-83
2022/07/16 10:21:08;;;;;;;0.53;0.30;;;22.20;1.00;;;;;;4917857;29;20589;-83
2022/07/16 10:23:35;;;;;;;1.70;0.30;;;21.70;1.00;;;;;;4918941;29;20418;-84
2022/07/16 10:26:06;;;;;;;2.20;0.50;;;21.20;1.00;;;;;;4918923;29;20429;-83
2022/07/16 10:28:54;;;;;;;1.70;0.40;;;20.70;1.00;;;;;;4917568;29;20519;-83
2022/07/16 10:31:36;;;;;;;1.43;0.30;;;20.80;1.00;;;;;;4918542;29;20424;-82
2022/07/16 10:34:14;;;;;;;1.13;0.37;;;20.80;1.00;;;;;;4918862;29;20417;-84
2022/07/16 10:36:45;;;;;;;0.87;0.27;;;20.60;1.00;;;;;;4917517;29;20524;-83
2022/07/16 10:39:15;;;;;;;0.70;0.30;;;20.70;1.00;;;;;;4918794;29;20433;-82
2022/07/16 10:41:51;;;;;;;2.63;0.30;;;21.50;1.00;;;;;;4918738;29;20410;-82
2022/07/16 10:44:17;;;;;;;1.47;0.30;;;23.30;1.00;;;;;;4918650;29;20426;-84
2022/07/16 10:46:57;;;;;;;0.40;0.20;;;24.90;1.00;;;;;;4918294;29;20982;-82
2022/07/16 10:49:25;;;;;;;0.77;0.20;;;24.90;1.00;;;;;;4918215;29;20481;-83
2022/07/16 10:52:23;;;;;;;0.90;0.20;;;25.40;1.00;;;;;;4917289;29;20517;-83
2022/07/16 10:54:51;;;;;;;0.50;0.20;;;25.00;1.00;;;;;;4918201;29;20442;-84
2022/07/16 10:57:17;;;;;;;3.20;1.40;;;25.10;1.00;;;;;;4918368;29;20418;-84
2022/07/16 10:59:48;;;;;;;2.00;0.67;;;26.10;1.00;;;;;;4909352;29;20442;-83
2022/07/16 11:02:16;;;;;;;0.80;0.30;;;24.80;1.00;;;;;;4908854;29;20419;-83
2022/07/16 11:04:47;;;;;;;2.40;2.10;;;23.10;1.00;;;;;;4907076;29;20427;-84
2022/07/16 11:07:14;;;;;;;1.40;1.00;;;22.10;1.00;;;;;;4906779;29;20411;-83
2022/07/16 11:09:45;;;;;;;1.30;0.60;;;21.50;1.00;;;;;;4921809;29;20497;-82
2022/07/16 11:12:18;;;;;;;7.77;5.17;;;21.50;1.00;;;;;;4917886;29;20514;-84
2022/07/16 11:14:46;;;;;;;1.73;1.60;;;22.50;1.00;;;;;;4918085;29;20489;-83
2022/07/16 11:17:13;;;;;;;1.80;0.23;;;23.90;1.00;;;;;;4917574;29;20461;-83
2022/07/16 11:19:41;;;;;;;1.13;0.23;;;25.00;1.00;;;;;;4917881;29;20417;-83
2022/07/16 11:22:07;;;;;;;1.57;0.50;;;24.30;1.00;;;;;;4932397;29;20448;-83
2022/07/16 11:24:32;;;;;;;2.93;1.50;;;22.60;1.00;;;;;;4917663;29;20906;-83
2022/07/16 11:27:00;;;;;;;1.50;0.40;;;21.90;1.00;;;;;;4917773;29;20639;-84
2022/07/16 11:29:26;;;;;;;1.13;0.30;;;21.60;1.00;;;;;;4916386;29;20578;-83
2022/07/16 11:31:52;;;;;;;0.57;0.33;;;21.80;1.00;;;;;;4931988;29;20831;-83
2022/07/16 11:34:19;;;;;;;1.90;0.50;;;21.20;1.00;;;;;;4917632;29;20422;-82
2022/07/16 11:36:50;;;;;;;1.07;0.20;;;21.00;1.00;;;;;;4917742;29;20432;-82
2022/07/16 11:39:17;;;;;;;1.17;0.20;;;21.00;1.00;;;;;;4917587;29;20512;-83
2022/07/16 11:41:46;;;;;;;2.50;0.20;;;21.70;1.00;;;;;;4917416;29;20509;-82
2022/07/16 11:44:13;;;;;;;0.60;0.20;;;22.90;1.00;;;;;;4917544;29;20414;-83
2022/07/16 11:46:47;;;;;;;2.50;0.77;;;24.40;1.00;;;;;;4917006;29;20475;-83
2022/07/16 11:49:25;;;;;;;0.70;0.20;;;23.20;1.00;;;;;;4917326;29;20918;-83
2022/07/16 11:51:53;;;;;;;2.13;0.70;;;22.20;1.00;;;;;;4917451;29;20411;-84
2022/07/16 11:54:19;;;;;;;1.47;0.20;;;21.30;1.00;;;;;;4917138;29;20427;-82
2022/07/16 11:56:44;;;;;;;1.60;0.77;;;20.90;1.00;;;;;;4917169;29;20457;-83
2022/07/16 11:59:24;;;;;;;1.93;0.33;;;20.90;1.00;;;;;;4916846;29;20177;-82
2022/07/16 12:02:00;;;;;;;0.50;0.40;;;21.10;1.00;;;;;;4916696;29;20539;-82
2022/07/16 12:04:40;;;;;;;0.70;0.30;;;21.40;1.00;;;;;;4917047;29;20432;-84
2022/07/16 12:07:09;;;;;;;5.30;2.33;;;22.20;1.00;;;;;;4916956;29;20421;-83
2022/07/16 12:09:40;;;;;;;1.30;0.20;;;22.20;1.00;;;;;;4916846;29;20473;-83
2022/07/16 12:12:09;;;;;;;2.33;0.33;;;21.70;1.00;;;;;;4917086;29;20444;-83
2022/07/16 12:14:53;;;;;;;2.67;0.60;;;21.80;1.00;;;;;;4931556;29;20490;-83
2022/07/16 12:17:24;;;;;;;0.70;0.20;;;21.60;1.00;;;;;;4916618;29;20413;-84
2022/07/16 12:20:14;;;;;;;1.13;0.30;;;21.10;1.00;;;;;;4916944;29;20421;-82
2022/07/16 12:22:56;;;;;;;0.50;0.20;;;21.90;1.00;;;;;;4916908;29;20406;-82
2022/07/16 12:25:27;;;;;;;0.73;0.30;;;22.70;1.00;;;;;;4916836;29;20414;-82
2022/07/16 12:28:08;;;;;;;0.97;0.20;;;22.00;1.00;;;;;;4916820;29;20456;-83
2022/07/16 12:30:33;;;;;;;1.13;0.50;;;21.10;1.00;;;;;;4916572;29;20535;-83
2022/07/16 12:33:01;;;;;;;2.60;0.23;;;21.00;1.00;;;;;;4916393;29;20808;-83
2022/07/16 12:35:43;;;;;;;0.60;0.30;;;20.80;1.00;;;;;;4916778;29;20175;-82
2022/07/16 12:38:48;;;;;;;0.93;0.30;;;20.40;1.00;;;;;;4931183;29;20509;-82
2022/07/16 12:41:21;;;;;;;2.70;0.53;;;20.60;1.00;;;;;;4916750;29;20933;-82
2022/07/16 12:43:53;;;;;;;1.30;0.60;;;21.20;1.00;;;;;;4916752;29;20981;-84
2022/07/16 12:46:19;;;;;;;0.40;0.33;;;23.20;1.00;;;;;;4916314;29;20414;-82
2022/07/16 12:48:57;;;;;;;0.50;0.20;;;23.30;1.00;;;;;;4916581;29;20434;-82
2022/07/16 12:51:29;;;;;;;0.83;0.27;;;21.60;1.00;;;;;;4916675;29;20437;-83
2022/07/16 12:53:56;;;;;;;1.50;0.33;;;21.10;1.00;;;;;;4916723;29;20424;-83
2022/07/16 12:59:09;;;;;;;0.60;0.20;;;21.50;1.00;;;;;;4916825;29;20443;-82
2022/07/16 13:01:34;;;;;;;1.90;0.50;;;23.00;1.00;;;;;;4930519;29;20805;-83